sensor_id;sensor_type;location;lat;lon;timestamp;temperature;humidity
14252;DHT22;7210;51.502;10.722;2023-06-14T00:00:58;14.00;1.00
14252;DHT22;7210;51.502;10.722;2023-06-14T00:03:29;13.90;1.00
14252;DHT22;7210;51.502;10.722;2023-06-14T00:05:58;13.70;1.00
14252;DHT22;7210;51.502;10.722;2023-06-14T00:08:28;13.60;1.00
14252;DHT22;7210;51.502;10.722;2023-06-14T00:10:58;13.60;1.00
14252;DHT22;7210;51.502;10.722;2023-06-14T00:13:25;13.60;1.00
14252;DHT22;7210;51.502;10.722;2023-06-14T00:15:58;13.70;1.00
14252;DHT22;7210;51.502;10.722;2023-06-14T00:18:25;13.70;1.00
14252;DHT22;7210;51.502;10.722;2023-06-14T00:20:59;13.80;1.00
14252;DHT22;7210;51.502;10.722;2023-06-14T00:23:27;13.80;1.00
14252;DHT22;7210;51.502;10.722;2023-06-14T00:25:58;13.70;1.00
14252;DHT22;7210;51.502;10.722;2023-06-14T00:28:25;13.70;1.00
14252;DHT22;7210;51.502;10.722;2023-06-14T00:30:52;13.60;1.00
14252;DHT22;7210;51.502;10.722;2023-06-14T00:33:19;13.40;1.00
14252;DHT22;7210;51.502;10.722;2023-06-14T00:35:52;13.30;1.00
14252;DHT22;7210;51.502;10.722;2023-06-14T00:38:21;13.10;1.00
14252;DHT22;7210;51.502;10.722;2023-06-14T00:41:04;13.10;1.00
14252;DHT22;7210;51.502;10.722;2023-06-14T00:43:31;13.00;1.00
14252;DHT22;7210;51.502;10.722;2023-06-14T00:46:00;12.90;1.00
14252;DHT22;7210;51.502;10.722;2023-06-14T00:48:30;12.80;1.00
14252;DHT22;7210;51.502;10.722;2023-06-14T00:51:10;12.60;1.00
14252;DHT22;7210;51.502;10.722;2023-06-14T00:53:41;12.40;1.00
14252;DHT22;7210;51.502;10.722;2023-06-14T00:56:12;12.30;1.00
14252;DHT22;7210;51.502;10.722;2023-06-14T00:58:46;12.10;1.00
14252;DHT22;7210;51.502;10.722;2023-06-14T01:01:13;12.00;1.00
14252;DHT22;7210;51.502;10.722;2023-06-14T01:03:46;11.90;1.00
14252;DHT22;7210;51.502;10.722;2023-06-14T01:06:20;11.80;1.00
14252;DHT22;7210;51.502;10.722;2023-06-14T01:09:06;11.70;1.00
14252;DHT22;7210;51.502;10.722;2023-06-14T01:11:48;11.60;1.00
14252;DHT22;7210;51.502;10.722;2023-06-14T01:14:21;11.40;1.00
14252;DHT22;7210;51.502;10.722;2023-06-14T01:16:50;11.40;1.00
14252;DHT22;7210;51.502;10.722;2023-06-14T01:19:21;11.20;1.00
14252;DHT22;7210;51.502;10.722;2023-06-14T01:22:10;11.20;1.00
14252;DHT22;7210;51.502;10.722;2023-06-14T01:24:39;11.20;1.00
14252;DHT22;7210;51.502;10.722;2023-06-14T01:27:11;11.10;1.00
14252;DHT22;7210;51.502;10.722;2023-06-14T01:29:41;11.00;1.00
14252;DHT22;7210;51.502;10.722;2023-06-14T01:32:16;10.90;1.00
14252;DHT22;7210;51.502;10.722;2023-06-14T01:34:46;10.80;1.00
14252;DHT22;7210;51.502;10.722;2023-06-14T01:37:13;10.80;1.00
14252;DHT22;7210;51.502;10.722;2023-06-14T01:39:43;10.80;1.00
14252;DHT22;7210;51.502;10.722;2023-06-14T01:42:13;10.80;1.00
14252;DHT22;7210;51.502;10.722;2023-06-14T01:44:46;10.90;1.00
14252;DHT22;7210;51.502;10.722;2023-06-14T01:47:15;10.80;1.00
14252;DHT22;7210;51.502;10.722;2023-06-14T01:49:52;10.80;1.00
14252;DHT22;7210;51.502;10.722;2023-06-14T01:52:19;10.80;1.00
14252;DHT22;7210;51.502;10.722;2023-06-14T01:54:53;10.90;1.00
14252;DHT22;7210;51.502;10.722;2023-06-14T01:57:22;11.10;1.00
14252;DHT22;7210;51.502;10.722;2023-06-14T01:59:52;11.10;1.00
14252;DHT22;7210;51.502;10.722;2023-06-14T02:05:43;11.10;1.00
14252;DHT22;7210;51.502;10.722;2023-06-14T02:08:11;11.10;1.00
14252;DHT22;7210;51.502;10.722;2023-06-14T02:10:41;11.00;1.00
14252;DHT22;7210;51.502;10.722;2023-06-14T02:16:36;11.00;1.00
14252;DHT22;7210;51.502;10.722;2023-06-14T02:19:06;11.00;1.00
14252;DHT22;7210;51.502;10.722;2023-06-14T02:21:35;10.70;1.00
14252;DHT22;7210;51.502;10.722;2023-06-14T02:24:06;10.50;1.00
14252;DHT22;7210;51.502;10.722;2023-06-14T02:26:38;10.40;1.00
14252;DHT22;7210;51.502;10.722;2023-06-14T02:29:05;10.20;1.00
14252;DHT22;7210;51.502;10.722;2023-06-14T02:31:35;10.20;1.00
14252;DHT22;7210;51.502;10.722;2023-06-14T02:34:03;10.20;1.00
14252;DHT22;7210;51.502;10.722;2023-06-14T02:36:30;10.40;1.00
14252;DHT22;7210;51.502;10.722;2023-06-14T02:38:59;10.60;1.00
14252;DHT22;7210;51.502;10.722;2023-06-14T02:41:27;10.80;1.00
14252;DHT22;7210;51.502;10.722;2023-06-14T02:43:55;10.80;1.00
14252;DHT22;7210;51.502;10.722;2023-06-14T02:46:24;10.80;1.00
14252;DHT22;7210;51.502;10.722;2023-06-14T02:48:51;10.90;1.00
14252;DHT22;7210;51.502;10.722;2023-06-14T02:51:18;10.90;1.00
14252;DHT22;7210;51.502;10.722;2023-06-14T02:53:45;11.00;1.00
14252;DHT22;7210;51.502;10.722;2023-06-14T02:56:13;11.10;1.00
14252;DHT22;7210;51.502;10.722;2023-06-14T02:58:48;11.10;1.00
14252;DHT22;7210;51.502;10.722;2023-06-14T03:01:19;10.90;1.00
14252;DHT22;7210;51.502;10.722;2023-06-14T03:03:47;10.80;1.00
14252;DHT22;7210;51.502;10.722;2023-06-14T03:06:14;10.50;1.00
14252;DHT22;7210;51.502;10.722;2023-06-14T03:08:44;10.30;1.00
14252;DHT22;7210;51.502;10.722;2023-06-14T03:11:18;10.30;1.00
14252;DHT22;7210;51.502;10.722;2023-06-14T03:13:47;10.40;1.00
14252;DHT22;7210;51.502;10.722;2023-06-14T03:16:16;10.60;1.00
14252;DHT22;7210;51.502;10.722;2023-06-14T03:18:49;10.70;1.00
14252;DHT22;7210;51.502;10.722;2023-06-14T03:21:17;10.80;1.00
14252;DHT22;7210;51.502;10.722;2023-06-14T03:23:46;10.90;1.00
14252;DHT22;7210;51.502;10.722;2023-06-14T03:26:14;11.00;1.00
14252;DHT22;7210;51.502;10.722;2023-06-14T03:28:45;11.00;1.00
14252;DHT22;7210;51.502;10.722;2023-06-14T03:31:13;10.90;1.00
14252;DHT22;7210;51.502;10.722;2023-06-14T03:33:42;10.90;1.00
14252;DHT22;7210;51.502;10.722;2023-06-14T03:36:10;11.00;1.00
14252;DHT22;7210;51.502;10.722;2023-06-14T03:38:37;11.00;1.00
14252;DHT22;7210;51.502;10.722;2023-06-14T03:41:05;11.00;1.00
14252;DHT22;7210;51.502;10.722;2023-06-14T03:43:32;11.00;1.00
14252;DHT22;7210;51.502;10.722;2023-06-14T03:46:01;11.00;1.00
14252;DHT22;7210;51.502;10.722;2023-06-14T03:48:32;11.00;1.00
14252;DHT22;7210;51.502;10.722;2023-06-14T03:51:03;11.10;1.00
14252;DHT22;7210;51.502;10.722;2023-06-14T03:53:30;11.10;1.00
14252;DHT22;7210;51.502;10.722;2023-06-14T03:55:58;11.20;1.00
14252;DHT22;7210;51.502;10.722;2023-06-14T03:58:36;11.20;1.00
14252;DHT22;7210;51.502;10.722;2023-06-14T04:01:04;11.30;1.00
14252;DHT22;7210;51.502;10.722;2023-06-14T04:03:36;11.30;1.00
14252;DHT22;7210;51.502;10.722;2023-06-14T04:06:07;11.40;1.00
14252;DHT22;7210;51.502;10.722;2023-06-14T04:08:36;11.30;1.00
14252;DHT22;7210;51.502;10.722;2023-06-14T04:11:05;11.20;1.00
14252;DHT22;7210;51.502;10.722;2023-06-14T04:13:33;11.10;1.00
14252;DHT22;7210;51.502;10.722;2023-06-14T04:16:02;11.10;1.00
14252;DHT22;7210;51.502;10.722;2023-06-14T04:18:42;11.20;1.00
14252;DHT22;7210;51.502;10.722;2023-06-14T04:21:12;11.20;1.00
14252;DHT22;7210;51.502;10.722;2023-06-14T04:23:39;11.20;1.00
14252;DHT22;7210;51.502;10.722;2023-06-14T04:26:09;11.20;1.00
14252;DHT22;7210;51.502;10.722;2023-06-14T04:28:39;11.30;1.00
14252;DHT22;7210;51.502;10.722;2023-06-14T04:31:07;11.40;1.00
14252;DHT22;7210;51.502;10.722;2023-06-14T04:33:35;11.60;1.00
14252;DHT22;7210;51.502;10.722;2023-06-14T04:36:11;11.90;1.00
14252;DHT22;7210;51.502;10.722;2023-06-14T04:38:42;12.10;1.00
14252;DHT22;7210;51.502;10.722;2023-06-14T04:41:11;12.30;1.00
14252;DHT22;7210;51.502;10.722;2023-06-14T04:43:40;12.60;1.00
14252;DHT22;7210;51.502;10.722;2023-06-14T04:46:08;12.90;1.00
14252;DHT22;7210;51.502;10.722;2023-06-14T04:48:39;13.00;1.00
14252;DHT22;7210;51.502;10.722;2023-06-14T04:51:11;13.20;1.00
14252;DHT22;7210;51.502;10.722;2023-06-14T04:53:38;13.20;1.00
14252;DHT22;7210;51.502;10.722;2023-06-14T04:56:06;13.30;1.00
14252;DHT22;7210;51.502;10.722;2023-06-14T04:58:33;13.40;1.00
14252;DHT22;7210;51.502;10.722;2023-06-14T05:01:01;13.40;1.00
14252;DHT22;7210;51.502;10.722;2023-06-14T05:03:28;13.60;1.00
14252;DHT22;7210;51.502;10.722;2023-06-14T05:05:56;13.70;1.00
14252;DHT22;7210;51.502;10.722;2023-06-14T05:08:25;13.80;1.00
14252;DHT22;7210;51.502;10.722;2023-06-14T05:10:53;13.90;1.00
14252;DHT22;7210;51.502;10.722;2023-06-14T05:13:21;13.90;1.00
14252;DHT22;7210;51.502;10.722;2023-06-14T05:15:49;13.90;1.00
14252;DHT22;7210;51.502;10.722;2023-06-14T05:18:16;14.00;1.00
14252;DHT22;7210;51.502;10.722;2023-06-14T05:20:43;14.00;1.00
14252;DHT22;7210;51.502;10.722;2023-06-14T05:23:11;14.00;1.00
14252;DHT22;7210;51.502;10.722;2023-06-14T05:25:43;14.10;1.00
14252;DHT22;7210;51.502;10.722;2023-06-14T05:28:11;14.10;1.00
14252;DHT22;7210;51.502;10.722;2023-06-14T05:30:39;14.20;1.00
14252;DHT22;7210;51.502;10.722;2023-06-14T05:33:06;14.40;1.00
14252;DHT22;7210;51.502;10.722;2023-06-14T05:35:34;14.40;1.00
14252;DHT22;7210;51.502;10.722;2023-06-14T05:38:01;14.50;1.00
14252;DHT22;7210;51.502;10.722;2023-06-14T05:40:30;14.70;1.00
14252;DHT22;7210;51.502;10.722;2023-06-14T05:42:59;14.80;1.00
14252;DHT22;7210;51.502;10.722;2023-06-14T05:45:26;14.80;1.00
14252;DHT22;7210;51.502;10.722;2023-06-14T05:47:53;14.90;1.00
14252;DHT22;7210;51.502;10.722;2023-06-14T05:50:21;14.90;1.00
14252;DHT22;7210;51.502;10.722;2023-06-14T05:52:48;14.90;1.00
14252;DHT22;7210;51.502;10.722;2023-06-14T05:55:16;15.00;1.00
14252;DHT22;7210;51.502;10.722;2023-06-14T05:57:43;15.00;1.00
14252;DHT22;7210;51.502;10.722;2023-06-14T06:00:13;15.00;1.00
14252;DHT22;7210;51.502;10.722;2023-06-14T06:02:42;15.00;1.00
14252;DHT22;7210;51.502;10.722;2023-06-14T06:05:10;15.10;1.00
14252;DHT22;7210;51.502;10.722;2023-06-14T06:07:38;15.20;1.00
14252;DHT22;7210;51.502;10.722;2023-06-14T06:10:07;15.20;1.00
14252;DHT22;7210;51.502;10.722;2023-06-14T06:12:36;15.30;1.00
14252;DHT22;7210;51.502;10.722;2023-06-14T06:15:04;15.30;1.00
14252;DHT22;7210;51.502;10.722;2023-06-14T06:17:34;15.40;1.00
14252;DHT22;7210;51.502;10.722;2023-06-14T06:20:02;15.50;1.00
14252;DHT22;7210;51.502;10.722;2023-06-14T06:22:31;15.60;1.00
14252;DHT22;7210;51.502;10.722;2023-06-14T06:24:58;15.70;1.00
14252;DHT22;7210;51.502;10.722;2023-06-14T06:27:25;15.80;1.00
14252;DHT22;7210;51.502;10.722;2023-06-14T06:29:52;15.80;1.00
14252;DHT22;7210;51.502;10.722;2023-06-14T06:32:19;15.90;1.00
14252;DHT22;7210;51.502;10.722;2023-06-14T06:34:48;16.00;1.00
14252;DHT22;7210;51.502;10.722;2023-06-14T06:37:15;16.10;1.00
14252;DHT22;7210;51.502;10.722;2023-06-14T06:39:48;16.20;1.00
14252;DHT22;7210;51.502;10.722;2023-06-14T06:42:15;16.20;1.00
14252;DHT22;7210;51.502;10.722;2023-06-14T06:44:43;16.40;1.00
14252;DHT22;7210;51.502;10.722;2023-06-14T06:47:11;16.40;1.00
14252;DHT22;7210;51.502;10.722;2023-06-14T06:49:39;16.50;1.00
14252;DHT22;7210;51.502;10.722;2023-06-14T06:52:08;16.50;1.00
14252;DHT22;7210;51.502;10.722;2023-06-14T06:54:35;16.60;1.00
14252;DHT22;7210;51.502;10.722;2023-06-14T06:57:02;16.70;1.00
14252;DHT22;7210;51.502;10.722;2023-06-14T06:59:30;16.70;1.00
14252;DHT22;7210;51.502;10.722;2023-06-14T07:01:57;16.80;1.00
14252;DHT22;7210;51.502;10.722;2023-06-14T07:04:24;16.90;1.00
14252;DHT22;7210;51.502;10.722;2023-06-14T07:06:52;17.00;1.00
14252;DHT22;7210;51.502;10.722;2023-06-14T07:09:20;17.10;1.00
14252;DHT22;7210;51.502;10.722;2023-06-14T07:11:48;17.20;1.00
14252;DHT22;7210;51.502;10.722;2023-06-14T07:14:15;17.30;1.00
14252;DHT22;7210;51.502;10.722;2023-06-14T07:16:43;17.40;1.00
14252;DHT22;7210;51.502;10.722;2023-06-14T07:19:10;17.60;1.00
14252;DHT22;7210;51.502;10.722;2023-06-14T07:21:37;17.70;1.00
14252;DHT22;7210;51.502;10.722;2023-06-14T07:24:05;17.90;1.00
14252;DHT22;7210;51.502;10.722;2023-06-14T07:26:35;18.00;1.00
14252;DHT22;7210;51.502;10.722;2023-06-14T07:29:02;18.10;1.00
14252;DHT22;7210;51.502;10.722;2023-06-14T07:31:29;18.10;1.00
14252;DHT22;7210;51.502;10.722;2023-06-14T07:33:57;18.10;1.00
14252;DHT22;7210;51.502;10.722;2023-06-14T07:36:24;18.20;1.00
14252;DHT22;7210;51.502;10.722;2023-06-14T07:38:51;18.30;1.00
14252;DHT22;7210;51.502;10.722;2023-06-14T07:41:24;18.30;1.00
14252;DHT22;7210;51.502;10.722;2023-06-14T07:43:54;18.30;1.00
14252;DHT22;7210;51.502;10.722;2023-06-14T07:46:21;18.40;1.00
14252;DHT22;7210;51.502;10.722;2023-06-14T07:48:48;18.40;1.00
14252;DHT22;7210;51.502;10.722;2023-06-14T07:51:15;18.40;1.00
14252;DHT22;7210;51.502;10.722;2023-06-14T07:53:42;18.40;1.00
14252;DHT22;7210;51.502;10.722;2023-06-14T07:56:10;18.30;1.00
14252;DHT22;7210;51.502;10.722;2023-06-14T07:58:37;18.40;1.00
14252;DHT22;7210;51.502;10.722;2023-06-14T08:01:08;18.60;1.00
14252;DHT22;7210;51.502;10.722;2023-06-14T08:03:35;18.70;1.00
14252;DHT22;7210;51.502;10.722;2023-06-14T08:06:03;18.80;1.00
14252;DHT22;7210;51.502;10.722;2023-06-14T08:08:30;18.90;1.00
14252;DHT22;7210;51.502;10.722;2023-06-14T08:10:57;18.90;1.00
14252;DHT22;7210;51.502;10.722;2023-06-14T08:13:24;19.00;1.00
14252;DHT22;7210;51.502;10.722;2023-06-14T08:15:54;19.10;1.00
14252;DHT22;7210;51.502;10.722;2023-06-14T08:18:25;19.20;1.00
14252;DHT22;7210;51.502;10.722;2023-06-14T08:21:00;19.40;1.00
14252;DHT22;7210;51.502;10.722;2023-06-14T08:23:28;19.60;1.00
14252;DHT22;7210;51.502;10.722;2023-06-14T08:25:56;19.90;1.00
14252;DHT22;7210;51.502;10.722;2023-06-14T08:28:24;20.10;1.00
14252;DHT22;7210;51.502;10.722;2023-06-14T08:30:51;19.90;1.00
14252;DHT22;7210;51.502;10.722;2023-06-14T08:33:18;19.70;1.00
14252;DHT22;7210;51.502;10.722;2023-06-14T08:35:50;19.70;1.00
14252;DHT22;7210;51.502;10.722;2023-06-14T08:38:17;19.70;1.00
14252;DHT22;7210;51.502;10.722;2023-06-14T08:40:45;19.80;1.00
14252;DHT22;7210;51.502;10.722;2023-06-14T08:43:17;20.00;1.00
14252;DHT22;7210;51.502;10.722;2023-06-14T08:45:46;20.30;1.00
14252;DHT22;7210;51.502;10.722;2023-06-14T08:48:18;20.40;1.00
14252;DHT22;7210;51.502;10.722;2023-06-14T08:50:49;20.50;1.00
14252;DHT22;7210;51.502;10.722;2023-06-14T08:53:17;20.50;1.00
14252;DHT22;7210;51.502;10.722;2023-06-14T08:55:45;20.60;1.00
14252;DHT22;7210;51.502;10.722;2023-06-14T08:58:13;21.00;1.80
14252;DHT22;7210;51.502;10.722;2023-06-14T09:00:40;21.00;2.10
14252;DHT22;7210;51.502;10.722;2023-06-14T09:03:10;20.90;2.40
14252;DHT22;7210;51.502;10.722;2023-06-14T09:05:39;20.70;1.00
14252;DHT22;7210;51.502;10.722;2023-06-14T09:08:07;20.80;1.00
14252;DHT22;7210;51.502;10.722;2023-06-14T09:10:36;20.70;1.00
14252;DHT22;7210;51.502;10.722;2023-06-14T09:13:03;20.50;1.00
14252;DHT22;7210;51.502;10.722;2023-06-14T09:15:31;20.60;1.00
14252;DHT22;7210;51.502;10.722;2023-06-14T09:18:06;20.70;1.00
14252;DHT22;7210;51.502;10.722;2023-06-14T09:20:33;20.80;1.00
14252;DHT22;7210;51.502;10.722;2023-06-14T09:23:01;21.00;2.40
14252;DHT22;7210;51.502;10.722;2023-06-14T09:25:46;20.90;2.20
14252;DHT22;7210;51.502;10.722;2023-06-14T09:28:13;21.10;3.40
14252;DHT22;7210;51.502;10.722;2023-06-14T09:30:40;20.90;2.50
14252;DHT22;7210;51.502;10.722;2023-06-14T09:33:18;20.80;1.00
14252;DHT22;7210;51.502;10.722;2023-06-14T09:35:46;21.00;4.20
14252;DHT22;7210;51.502;10.722;2023-06-14T09:38:17;21.20;3.20
14252;DHT22;7210;51.502;10.722;2023-06-14T09:40:45;21.40;7.40
14252;DHT22;7210;51.502;10.722;2023-06-14T09:43:13;21.70;10.60
14252;DHT22;7210;51.502;10.722;2023-06-14T09:45:42;22.10;17.00
14252;DHT22;7210;51.502;10.722;2023-06-14T09:48:12;22.40;16.70
14252;DHT22;7210;51.502;10.722;2023-06-14T09:50:50;22.80;22.20
14252;DHT22;7210;51.502;10.722;2023-06-14T09:53:21;23.20;25.60
14252;DHT22;7210;51.502;10.722;2023-06-14T09:55:57;23.30;28.00
14252;DHT22;7210;51.502;10.722;2023-06-14T09:58:26;23.30;30.50
14252;DHT22;7210;51.502;10.722;2023-06-14T10:00:56;23.30;28.40
14252;DHT22;7210;51.502;10.722;2023-06-14T10:03:28;23.30;29.90
14252;DHT22;7210;51.502;10.722;2023-06-14T10:05:58;23.30;31.10
14252;DHT22;7210;51.502;10.722;2023-06-14T10:08:31;23.20;49.50
14252;DHT22;7210;51.502;10.722;2023-06-14T10:11:03;23.20;29.70
14252;DHT22;7210;51.502;10.722;2023-06-14T10:13:32;22.80;26.00
14252;DHT22;7210;51.502;10.722;2023-06-14T10:16:10;22.50;21.60
14252;DHT22;7210;51.502;10.722;2023-06-14T10:18:49;22.30;22.00
14252;DHT22;7210;51.502;10.722;2023-06-14T10:21:32;22.10;19.10
14252;DHT22;7210;51.502;10.722;2023-06-14T10:24:06;22.10;17.80
14252;DHT22;7210;51.502;10.722;2023-06-14T10:26:50;22.10;17.80
14252;DHT22;7210;51.502;10.722;2023-06-14T10:29:18;22.30;19.50
14252;DHT22;7210;51.502;10.722;2023-06-14T10:31:46;22.40;21.20
14252;DHT22;7210;51.502;10.722;2023-06-14T10:34:22;22.70;23.80
14252;DHT22;7210;51.502;10.722;2023-06-14T10:37:10;22.90;27.40
14252;DHT22;7210;51.502;10.722;2023-06-14T10:39:39;23.20;31.50
14252;DHT22;7210;51.502;10.722;2023-06-14T10:42:09;23.30;34.30
14252;DHT22;7210;51.502;10.722;2023-06-14T10:44:41;23.40;33.90
14252;DHT22;7210;51.502;10.722;2023-06-14T10:47:27;23.20;33.50
14252;DHT22;7210;51.502;10.722;2023-06-14T10:50:04;22.80;30.30
14252;DHT22;7210;51.502;10.722;2023-06-14T10:52:35;22.90;27.80
14252;DHT22;7210;51.502;10.722;2023-06-14T10:55:08;23.20;32.40
14252;DHT22;7210;51.502;10.722;2023-06-14T10:57:45;23.70;36.40
14252;DHT22;7210;51.502;10.722;2023-06-14T11:00:15;24.00;45.80
14252;DHT22;7210;51.502;10.722;2023-06-14T11:06:14;24.10;45.10
14252;DHT22;7210;51.502;10.722;2023-06-14T11:11:51;24.70;51.70
14252;DHT22;7210;51.502;10.722;2023-06-14T11:14:26;24.90;56.90
14252;DHT22;7210;51.502;10.722;2023-06-14T11:16:56;25.00;60.90
14252;DHT22;7210;51.502;10.722;2023-06-14T11:19:24;24.90;60.90
14252;DHT22;7210;51.502;10.722;2023-06-14T11:22:00;24.80;60.50
14252;DHT22;7210;51.502;10.722;2023-06-14T11:24:37;24.40;54.10
14252;DHT22;7210;51.502;10.722;2023-06-14T11:27:05;23.90;46.50
14252;DHT22;7210;51.502;10.722;2023-06-14T11:29:35;23.80;45.70
14252;DHT22;7210;51.502;10.722;2023-06-14T11:32:07;23.70;42.60
14252;DHT22;7210;51.502;10.722;2023-06-14T11:34:38;23.80;47.30
14252;DHT22;7210;51.502;10.722;2023-06-14T11:37:05;24.00;45.60
14252;DHT22;7210;51.502;10.722;2023-06-14T11:39:32;23.60;44.20
14252;DHT22;7210;51.502;10.722;2023-06-14T11:42:01;23.50;37.50
14252;DHT22;7210;51.502;10.722;2023-06-14T11:44:29;23.60;40.20
14252;DHT22;7210;51.502;10.722;2023-06-14T11:46:58;23.50;40.20
14252;DHT22;7210;51.502;10.722;2023-06-14T11:49:35;23.70;42.70
14252;DHT22;7210;51.502;10.722;2023-06-14T11:52:03;23.70;42.50
14252;DHT22;7210;51.502;10.722;2023-06-14T11:54:42;23.80;46.80
14252;DHT22;7210;51.502;10.722;2023-06-14T11:57:10;23.90;48.30
14252;DHT22;7210;51.502;10.722;2023-06-14T11:59:40;24.40;55.40
14252;DHT22;7210;51.502;10.722;2023-06-14T12:02:16;24.80;63.10
14252;DHT22;7210;51.502;10.722;2023-06-14T12:04:49;25.40;70.20
14252;DHT22;7210;51.502;10.722;2023-06-14T12:07:17;25.70;74.90
14252;DHT22;7210;51.502;10.722;2023-06-14T12:10:03;25.70;76.90
14252;DHT22;7210;51.502;10.722;2023-06-14T12:12:36;25.70;77.30
14252;DHT22;7210;51.502;10.722;2023-06-14T12:15:12;25.20;69.00
14252;DHT22;7210;51.502;10.722;2023-06-14T12:17:42;24.70;63.20
14252;DHT22;7210;51.502;10.722;2023-06-14T12:20:12;24.50;57.80
14252;DHT22;7210;51.502;10.722;2023-06-14T12:22:51;24.60;58.70
14252;DHT22;7210;51.502;10.722;2023-06-14T12:25:42;24.60;59.70
14252;DHT22;7210;51.502;10.722;2023-06-14T12:28:10;24.50;59.80
14252;DHT22;7210;51.502;10.722;2023-06-14T12:30:38;24.10;53.80
14252;DHT22;7210;51.502;10.722;2023-06-14T12:33:14;24.30;54.40
14252;DHT22;7210;51.502;10.722;2023-06-14T12:35:42;24.20;55.70
14252;DHT22;7210;51.502;10.722;2023-06-14T12:38:10;24.00;50.70
14252;DHT22;7210;51.502;10.722;2023-06-14T12:40:48;23.80;50.80
14252;DHT22;7210;51.502;10.722;2023-06-14T12:43:15;23.80;48.20
14252;DHT22;7210;51.502;10.722;2023-06-14T12:45:43;24.20;50.30
14252;DHT22;7210;51.502;10.722;2023-06-14T12:48:10;24.50;57.60
14252;DHT22;7210;51.502;10.722;2023-06-14T12:50:44;24.70;61.10
14252;DHT22;7210;51.502;10.722;2023-06-14T12:53:11;24.80;60.30
14252;DHT22;7210;51.502;10.722;2023-06-14T12:55:42;24.50;61.90
14252;DHT22;7210;51.502;10.722;2023-06-14T12:58:09;24.10;54.50
14252;DHT22;7210;51.502;10.722;2023-06-14T13:00:38;24.30;55.90
14252;DHT22;7210;51.502;10.722;2023-06-14T13:03:05;24.30;55.80
14252;DHT22;7210;51.502;10.722;2023-06-14T13:05:33;24.10;55.70
14252;DHT22;7210;51.502;10.722;2023-06-14T13:08:08;24.30;55.00
14252;DHT22;7210;51.502;10.722;2023-06-14T13:10:35;24.70;59.50
14252;DHT22;7210;51.502;10.722;2023-06-14T13:13:03;25.40;72.30
14252;DHT22;7210;51.502;10.722;2023-06-14T13:15:30;25.90;83.40
14252;DHT22;7210;51.502;10.722;2023-06-14T13:17:57;25.90;85.70
14252;DHT22;7210;51.502;10.722;2023-06-14T13:20:25;25.70;81.50
14252;DHT22;7210;51.502;10.722;2023-06-14T13:22:52;25.40;76.70
14252;DHT22;7210;51.502;10.722;2023-06-14T13:25:20;25.20;73.30
14252;DHT22;7210;51.502;10.722;2023-06-14T13:27:48;24.90;67.70
14252;DHT22;7210;51.502;10.722;2023-06-14T13:30:24;24.40;59.00
14252;DHT22;7210;51.502;10.722;2023-06-14T13:32:54;24.00;52.20
14252;DHT22;7210;51.502;10.722;2023-06-14T13:35:22;24.00;55.40
14252;DHT22;7210;51.502;10.722;2023-06-14T13:37:49;24.10;54.50
14252;DHT22;7210;51.502;10.722;2023-06-14T13:40:16;24.30;57.60
14252;DHT22;7210;51.502;10.722;2023-06-14T13:42:46;24.60;60.50
14252;DHT22;7210;51.502;10.722;2023-06-14T13:45:15;25.10;69.60
14252;DHT22;7210;51.502;10.722;2023-06-14T13:47:42;25.50;76.90
14252;DHT22;7210;51.502;10.722;2023-06-14T13:50:10;25.60;78.80
14252;DHT22;7210;51.502;10.722;2023-06-14T13:52:38;25.30;77.40
14252;DHT22;7210;51.502;10.722;2023-06-14T13:55:06;25.20;73.50
14252;DHT22;7210;51.502;10.722;2023-06-14T13:57:35;25.00;68.80
14252;DHT22;7210;51.502;10.722;2023-06-14T14:00:05;24.60;65.10
14252;DHT22;7210;51.502;10.722;2023-06-14T14:02:41;24.40;60.40
14252;DHT22;7210;51.502;10.722;2023-06-14T14:05:09;24.40;59.10
14252;DHT22;7210;51.502;10.722;2023-06-14T14:07:36;24.20;58.90
14252;DHT22;7210;51.502;10.722;2023-06-14T14:10:06;24.10;56.80
14252;DHT22;7210;51.502;10.722;2023-06-14T14:12:36;24.10;53.60
14252;DHT22;7210;51.502;10.722;2023-06-14T14:15:08;24.20;57.30
14252;DHT22;7210;51.502;10.722;2023-06-14T14:17:38;24.20;56.90
14252;DHT22;7210;51.502;10.722;2023-06-14T14:20:07;24.20;58.40
14252;DHT22;7210;51.502;10.722;2023-06-14T14:22:37;24.10;57.30
14252;DHT22;7210;51.502;10.722;2023-06-14T14:25:05;23.80;51.10
14252;DHT22;7210;51.502;10.722;2023-06-14T14:27:32;24.00;53.00
14252;DHT22;7210;51.502;10.722;2023-06-14T14:30:08;24.50;59.80
14252;DHT22;7210;51.502;10.722;2023-06-14T14:32:36;24.80;68.30
14252;DHT22;7210;51.502;10.722;2023-06-14T14:35:04;24.90;70.80
14252;DHT22;7210;51.502;10.722;2023-06-14T14:37:36;24.90;68.10
14252;DHT22;7210;51.502;10.722;2023-06-14T14:40:05;25.00;70.20
14252;DHT22;7210;51.502;10.722;2023-06-14T14:42:34;25.00;72.50
14252;DHT22;7210;51.502;10.722;2023-06-14T14:45:20;24.90;69.90
14252;DHT22;7210;51.502;10.722;2023-06-14T14:47:47;24.70;68.10
14252;DHT22;7210;51.502;10.722;2023-06-14T14:50:14;24.60;66.40
14252;DHT22;7210;51.502;10.722;2023-06-14T14:52:42;24.50;65.70
14252;DHT22;7210;51.502;10.722;2023-06-14T14:55:09;24.40;61.70
14252;DHT22;7210;51.502;10.722;2023-06-14T14:57:36;24.20;57.70
14252;DHT22;7210;51.502;10.722;2023-06-14T15:00:13;24.30;59.70
14252;DHT22;7210;51.502;10.722;2023-06-14T15:02:44;24.40;63.90
14252;DHT22;7210;51.502;10.722;2023-06-14T15:05:12;24.40;62.20
14252;DHT22;7210;51.502;10.722;2023-06-14T15:07:40;24.40;63.60
14252;DHT22;7210;51.502;10.722;2023-06-14T15:10:08;24.60;65.60
14252;DHT22;7210;51.502;10.722;2023-06-14T15:12:35;24.80;67.30
14252;DHT22;7210;51.502;10.722;2023-06-14T15:15:03;25.00;69.50
14252;DHT22;7210;51.502;10.722;2023-06-14T15:17:36;25.20;75.80
14252;DHT22;7210;51.502;10.722;2023-06-14T15:20:14;24.90;71.90
14252;DHT22;7210;51.502;10.722;2023-06-14T15:22:41;24.70;68.60
14252;DHT22;7210;51.502;10.722;2023-06-14T15:25:08;24.60;66.70
14252;DHT22;7210;51.502;10.722;2023-06-14T15:27:36;24.60;66.50
14252;DHT22;7210;51.502;10.722;2023-06-14T15:30:06;24.30;61.60
14252;DHT22;7210;51.502;10.722;2023-06-14T15:32:35;24.20;61.70
14252;DHT22;7210;51.502;10.722;2023-06-14T15:35:07;24.50;67.30
14252;DHT22;7210;51.502;10.722;2023-06-14T15:37:44;24.70;68.60
14252;DHT22;7210;51.502;10.722;2023-06-14T15:40:12;24.90;75.40
14252;DHT22;7210;51.502;10.722;2023-06-14T15:42:39;24.80;70.90
14252;DHT22;7210;51.502;10.722;2023-06-14T15:45:07;24.90;71.70
14252;DHT22;7210;51.502;10.722;2023-06-14T15:47:36;25.00;75.80
14252;DHT22;7210;51.502;10.722;2023-06-14T15:50:07;25.10;76.40
14252;DHT22;7210;51.502;10.722;2023-06-14T15:52:50;25.40;77.10
14252;DHT22;7210;51.502;10.722;2023-06-14T15:55:17;25.70;85.10
14252;DHT22;7210;51.502;10.722;2023-06-14T15:57:45;26.20;94.40
14252;DHT22;7210;51.502;10.722;2023-06-14T16:00:13;26.40;99.90
14252;DHT22;7210;51.502;10.722;2023-06-14T16:02:41;26.50;99.70
14252;DHT22;7210;51.502;10.722;2023-06-14T16:05:09;26.80;99.90
14252;DHT22;7210;51.502;10.722;2023-06-14T16:07:42;26.80;99.90
14252;DHT22;7210;51.502;10.722;2023-06-14T16:10:20;27.00;99.90